Time;durP1;ratioP1;P1;durP2;ratioP2;P2;SDS_P1;SDS_P2;PMS_P1;PMS_P2;Temp;Humidity;BMP_temperature;BMP_pressure;BME280_temperature;BME280_humidity;BME280_pressure;Samples;Min_cycle;Max_cycle;Signal;HPM_P1;HPM_P2
2022/03/17 00:01:33;;;;;;;26.17;19.27;;;;;;;;;;5012988;28;20431;-47
2022/03/17 00:03:59;;;;;;;24.23;17.30;;;;;;;;;;5012714;28;20455;-47
2022/03/17 00:06:25;;;;;;;22.80;18.30;;;;;;;;;;5012900;28;20495;-48
2022/03/17 00:08:51;;;;;;;25.70;18.20;;;;;;;;;;5012376;28;20409;-48
2022/03/17 00:11:17;;;;;;;25.33;17.40;;;;;;;;;;5012246;28;20431;-50
2022/03/17 00:13:43;;;;;;;26.73;18.20;;;;;;;;;;4997019;28;20413;-49
2022/03/17 00:16:10;;;;;;;25.70;18.47;;;;;;;;;;4992985;28;20852;-49
2022/03/17 00:18:36;;;;;;;25.20;17.70;;;;;;;;;;4992919;28;20404;-48
2022/03/17 00:21:03;;;;;;;22.63;17.67;;;;;;;;;;4993024;28;20436;-48
2022/03/17 00:23:29;;;;;;;25.50;18.60;;;;;;;;;;4992851;28;20404;-48
2022/03/17 00:25:55;;;;;;;30.00;19.33;;;;;;;;;;4993020;28;20515;-48
2022/03/17 00:28:21;;;;;;;26.63;18.47;;;;;;;;;;4992757;28;20936;-48
2022/03/17 00:30:47;;;;;;;27.07;18.80;;;;;;;;;;4975316;28;20810;-49
2022/03/17 00:33:13;;;;;;;22.53;18.20;;;;;;;;;;4992534;28;20406;-48
2022/03/17 00:35:42;;;;;;;27.70;20.10;;;;;;;;;;4992634;28;20522;-48
2022/03/17 00:38:09;;;;;;;22.13;17.80;;;;;;;;;;4992583;28;20405;-47
2022/03/17 00:40:36;;;;;;;26.20;19.80;;;;;;;;;;4992520;28;20415;-49
2022/03/17 00:43:03;;;;;;;23.03;17.60;;;;;;;;;;4992537;28;20402;-49
2022/03/17 00:45:29;;;;;;;26.97;18.73;;;;;;;;;;4992666;28;20408;-50
2022/03/17 00:47:55;;;;;;;24.93;18.43;;;;;;;;;;4992414;28;20905;-50
2022/03/17 00:50:21;;;;;;;25.83;18.40;;;;;;;;;;4992161;28;20406;-51
2022/03/17 00:52:48;;;;;;;26.73;18.80;;;;;;;;;;4992497;28;20404;-51
2022/03/17 00:55:14;;;;;;;25.87;19.83;;;;;;;;;;4992385;28;20448;-50
2022/03/17 00:57:41;;;;;;;22.30;18.33;;;;;;;;;;4992298;28;20907;-51
2022/03/17 01:00:07;;;;;;;21.30;17.80;;;;;;;;;;4992200;28;20771;-50
2022/03/17 01:02:33;;;;;;;26.33;19.47;;;;;;;;;;4992165;28;20444;-51
2022/03/17 01:08:03;;;;;;;23.70;18.47;;;;;;;;;;5009790;28;20390;-50
2022/03/17 01:10:29;;;;;;;36.63;18.97;;;;;;;;;;5011639;28;20400;-50
2022/03/17 01:12:56;;;;;;;27.03;17.80;;;;;;;;;;5011682;28;20912;-48
2022/03/17 01:15:22;;;;;;;24.10;18.10;;;;;;;;;;5011710;28;20554;-48
2022/03/17 01:17:48;;;;;;;28.73;19.87;;;;;;;;;;5011732;28;20400;-48
2022/03/17 01:20:14;;;;;;;28.07;20.37;;;;;;;;;;5012070;28;20876;-49
2022/03/17 01:22:41;;;;;;;26.57;19.03;;;;;;;;;;5015604;28;20421;-48
2022/03/17 01:25:07;;;;;;;23.90;18.70;;;;;;;;;;5015680;28;20408;-49
2022/03/17 01:27:34;;;;;;;24.93;18.20;;;;;;;;;;5015708;28;20404;-48
2022/03/17 01:30:00;;;;;;;34.73;19.97;;;;;;;;;;5014798;28;20420;-48
2022/03/17 01:32:26;;;;;;;27.70;20.63;;;;;;;;;;5015088;28;20443;-50
2022/03/17 01:34:52;;;;;;;29.60;19.37;;;;;;;;;;5014740;28;20949;-48
2022/03/17 01:37:18;;;;;;;25.07;20.00;;;;;;;;;;5015471;28;20444;-47
2022/03/17 01:39:44;;;;;;;29.67;20.17;;;;;;;;;;5015040;28;20417;-47
2022/03/17 01:42:11;;;;;;;26.40;19.73;;;;;;;;;;5015133;28;20518;-51
2022/03/17 01:44:37;;;;;;;24.50;20.10;;;;;;;;;;5014633;28;20430;-49
2022/03/17 01:49:49;;;;;;;26.23;19.87;;;;;;;;;;5014845;28;21053;-49
2022/03/17 01:52:15;;;;;;;28.50;20.50;;;;;;;;;;5014265;28;20436;-49
2022/03/17 01:54:41;;;;;;;26.07;19.70;;;;;;;;;;4997659;28;20411;-50
2022/03/17 01:57:09;;;;;;;30.73;20.60;;;;;;;;;;5014787;28;20467;-50
2022/03/17 01:59:36;;;;;;;27.50;20.70;;;;;;;;;;5014423;28;20919;-50
2022/03/17 02:02:02;;;;;;;28.10;20.33;;;;;;;;;;5014432;28;20439;-49
2022/03/17 02:04:28;;;;;;;24.90;18.87;;;;;;;;;;5014155;28;20489;-50
2022/03/17 02:06:55;;;;;;;27.00;20.73;;;;;;;;;;5014200;28;20429;-50
2022/03/17 02:09:26;;;;;;;29.53;21.10;;;;;;;;;;5014256;28;20421;-50
2022/03/17 02:14:46;;;;;;;23.57;18.90;;;;;;;;;;5014543;28;20446;-51
2022/03/17 02:17:12;;;;;;;26.83;21.67;;;;;;;;;;5014623;28;20775;-51
2022/03/17 02:19:38;;;;;;;25.83;20.13;;;;;;;;;;5014116;28;20403;-50
2022/03/17 02:22:06;;;;;;;29.73;20.80;;;;;;;;;;5014335;28;20793;-50
2022/03/17 02:27:18;;;;;;;24.40;20.63;;;;;;;;;;4995363;28;20983;-49
2022/03/17 02:29:44;;;;;;;25.70;20.40;;;;;;;;;;5012273;28;20431;-50
2022/03/17 02:32:10;;;;;;;26.07;19.90;;;;;;;;;;5013885;28;20459;-50
2022/03/17 02:34:37;;;;;;;28.30;19.63;;;;;;;;;;5014376;28;20412;-50
2022/03/17 02:37:03;;;;;;;27.63;20.00;;;;;;;;;;5014412;28;20464;-49
2022/03/17 02:39:29;;;;;;;28.63;21.00;;;;;;;;;;5013950;28;20499;-50
2022/03/17 02:41:55;;;;;;;30.83;20.70;;;;;;;;;;4996325;28;20889;-49
2022/03/17 02:44:21;;;;;;;24.57;20.57;;;;;;;;;;4994608;28;20488;-49
2022/03/17 02:46:47;;;;;;;26.03;20.70;;;;;;;;;;4994790;28;20477;-50
2022/03/17 02:49:15;;;;;;;30.03;20.03;;;;;;;;;;4994453;28;20416;-50
2022/03/17 02:51:42;;;;;;;30.33;22.80;;;;;;;;;;4994319;28;20440;-50
2022/03/17 02:54:08;;;;;;;27.33;20.27;;;;;;;;;;5003563;28;20425;-49
2022/03/17 02:56:34;;;;;;;29.93;20.00;;;;;;;;;;5013580;28;20459;-50
2022/03/17 02:59:00;;;;;;;29.10;21.87;;;;;;;;;;5013746;28;20434;-49
2022/03/17 03:01:26;;;;;;;33.77;22.47;;;;;;;;;;5013348;28;20496;-49
2022/03/17 03:03:52;;;;;;;30.10;20.33;;;;;;;;;;5013875;28;20923;-48
2022/03/17 03:06:18;;;;;;;26.33;19.93;;;;;;;;;;5013480;28;20916;-48
2022/03/17 03:08:44;;;;;;;28.27;21.17;;;;;;;;;;5013518;28;20950;-48
2022/03/17 03:11:10;;;;;;;29.67;21.80;;;;;;;;;;5012970;28;20526;-50
2022/03/17 03:13:36;;;;;;;25.43;18.90;;;;;;;;;;5013513;28;20422;-49
2022/03/17 03:16:03;;;;;;;25.90;20.27;;;;;;;;;;5013339;28;20433;-49
2022/03/17 03:18:29;;;;;;;28.20;20.43;;;;;;;;;;5013667;28;20493;-48
2022/03/17 03:20:55;;;;;;;24.17;18.47;;;;;;;;;;5012791;28;20483;-49
2022/03/17 03:23:21;;;;;;;29.13;19.93;;;;;;;;;;5013020;28;20498;-48
2022/03/17 03:25:46;;;;;;;25.80;18.63;;;;;;;;;;5013284;28;20423;-49
2022/03/17 03:28:12;;;;;;;24.40;17.30;;;;;;;;;;5013312;28;20419;-50
2022/03/17 03:30:39;;;;;;;27.00;19.40;;;;;;;;;;5012810;28;20413;-49
2022/03/17 03:33:07;;;;;;;27.17;19.67;;;;;;;;;;5013044;28;20981;-48
2022/03/17 03:38:19;;;;;;;22.23;17.97;;;;;;;;;;4997827;28;20417;-48
2022/03/17 03:40:45;;;;;;;27.77;20.43;;;;;;;;;;5012455;28;20478;-49
2022/03/17 03:43:11;;;;;;;28.70;21.33;;;;;;;;;;5012828;28;20907;-48
2022/03/17 03:45:37;;;;;;;30.73;21.57;;;;;;;;;;5012056;28;20395;-48
2022/03/17 03:48:03;;;;;;;28.40;21.80;;;;;;;;;;5012971;28;20465;-48
2022/03/17 03:50:30;;;;;;;29.40;22.77;;;;;;;;;;5012318;28;20411;-48
2022/03/17 03:52:57;;;;;;;25.47;20.70;;;;;;;;;;5012597;28;20478;-49
2022/03/17 03:55:23;;;;;;;27.07;20.50;;;;;;;;;;5012521;28;20996;-48
2022/03/17 03:57:49;;;;;;;32.57;21.83;;;;;;;;;;5012948;28;20495;-49
2022/03/17 04:00:36;;;;;;;27.30;20.07;;;;;;;;;;5012163;28;20507;-48
2022/03/17 04:03:05;;;;;;;28.00;22.27;;;;;;;;;;5012260;28;20534;-51
2022/03/17 04:05:34;;;;;;;27.23;20.43;;;;;;;;;;5012296;28;20415;-50
2022/03/17 04:08:00;;;;;;;27.57;21.13;;;;;;;;;;5012533;28;21022;-50
2022/03/17 04:10:26;;;;;;;28.30;21.77;;;;;;;;;;5011937;28;20502;-50
2022/03/17 04:12:52;;;;;;;29.90;20.77;;;;;;;;;;5011704;28;20482;-52
2022/03/17 04:15:18;;;;;;;28.20;21.87;;;;;;;;;;5012166;28;20541;-52
2022/03/17 04:17:44;;;;;;;29.90;21.20;;;;;;;;;;5012404;28;20503;-52
2022/03/17 04:20:11;;;;;;;28.23;21.50;;;;;;;;;;5012046;28;20566;-50
2022/03/17 04:22:37;;;;;;;28.20;21.87;;;;;;;;;;5011693;28;20436;-52
2022/03/17 04:25:03;;;;;;;28.67;20.70;;;;;;;;;;5012348;28;20447;-50
2022/03/17 04:27:29;;;;;;;26.63;21.17;;;;;;;;;;5011471;28;20910;-51
2022/03/17 04:29:55;;;;;;;28.60;22.40;;;;;;;;;;5011695;28;20407;-51
2022/03/17 04:32:21;;;;;;;30.00;22.70;;;;;;;;;;5011964;28;20427;-51
2022/03/17 04:34:47;;;;;;;33.27;22.70;;;;;;;;;;5012069;28;20791;-51
2022/03/17 04:37:14;;;;;;;30.17;22.60;;;;;;;;;;5012057;28;20796;-51
2022/03/17 04:39:39;;;;;;;28.30;21.07;;;;;;;;;;5011619;28;20414;-52
2022/03/17 04:42:06;;;;;;;33.87;23.97;;;;;;;;;;5011629;28;20433;-51
2022/03/17 04:44:31;;;;;;;31.67;23.67;;;;;;;;;;5005380;28;20411;-51
2022/03/17 04:46:58;;;;;;;31.30;23.50;;;;;;;;;;4999702;28;20470;-51
2022/03/17 04:49:23;;;;;;;32.60;23.10;;;;;;;;;;5000448;28;20435;-50
2022/03/17 04:51:50;;;;;;;32.00;23.30;;;;;;;;;;4999635;28;20443;-52
2022/03/17 04:54:16;;;;;;;29.73;22.23;;;;;;;;;;5011658;28;20913;-50
2022/03/17 04:56:42;;;;;;;30.53;22.80;;;;;;;;;;5011296;28;20463;-49
2022/03/17 04:59:08;;;;;;;32.30;23.20;;;;;;;;;;5011747;28;20424;-51
2022/03/17 05:01:34;;;;;;;33.90;22.17;;;;;;;;;;5011338;28;20440;-52
2022/03/17 05:04:00;;;;;;;41.53;25.00;;;;;;;;;;5011513;28;20933;-48
2022/03/17 05:06:26;;;;;;;32.40;24.10;;;;;;;;;;5011760;28;20822;-50
2022/03/17 05:08:52;;;;;;;28.93;21.37;;;;;;;;;;5011576;28;20808;-48
2022/03/17 05:11:19;;;;;;;30.70;23.50;;;;;;;;;;5010425;28;20471;-49
2022/03/17 05:13:46;;;;;;;32.27;23.90;;;;;;;;;;4997792;28;20420;-48
2022/03/17 05:16:13;;;;;;;33.37;23.57;;;;;;;;;;5011861;28;20561;-48
2022/03/17 05:18:39;;;;;;;31.30;23.33;;;;;;;;;;5011278;28;20825;-49
2022/03/17 05:21:06;;;;;;;33.33;24.03;;;;;;;;;;5010889;28;20435;-48
2022/03/17 05:23:33;;;;;;;32.83;24.93;;;;;;;;;;5011088;28;20426;-49
2022/03/17 05:25:59;;;;;;;36.03;26.50;;;;;;;;;;5011682;28;20414;-49
2022/03/17 05:28:26;;;;;;;34.93;26.30;;;;;;;;;;5011825;28;20422;-48
2022/03/17 05:30:52;;;;;;;44.20;26.30;;;;;;;;;;5011053;28;20431;-50
2022/03/17 05:33:18;;;;;;;41.47;30.03;;;;;;;;;;5010710;28;20417;-49
2022/03/17 05:35:45;;;;;;;36.97;26.40;;;;;;;;;;5011730;28;20963;-47
2022/03/17 05:38:11;;;;;;;38.77;26.87;;;;;;;;;;5011861;28;20423;-46
2022/03/17 05:40:37;;;;;;;38.57;26.33;;;;;;;;;;5011087;28;20390;-47
2022/03/17 05:43:08;;;;;;;41.27;28.17;;;;;;;;;;5011588;28;20975;-47
2022/03/17 05:45:35;;;;;;;42.37;28.03;;;;;;;;;;5011660;28;20415;-48
2022/03/17 05:48:02;;;;;;;41.60;29.07;;;;;;;;;;5012008;28;20410;-47
2022/03/17 05:50:30;;;;;;;43.77;28.87;;;;;;;;;;5011131;28;20477;-51
2022/03/17 05:52:56;;;;;;;44.97;29.27;;;;;;;;;;5011232;28;20414;-50
2022/03/17 05:55:23;;;;;;;50.10;31.17;;;;;;;;;;5005015;28;20468;-48
2022/03/17 05:57:50;;;;;;;44.03;28.87;;;;;;;;;;5003413;28;20510;-49
2022/03/17 06:00:20;;;;;;;44.57;29.97;;;;;;;;;;5013289;28;20415;-48
2022/03/17 06:02:46;;;;;;;45.07;29.00;;;;;;;;;;5011120;28;20423;-50
2022/03/17 06:05:13;;;;;;;51.47;33.63;;;;;;;;;;5011363;28;20415;-48
2022/03/17 06:07:40;;;;;;;51.50;33.50;;;;;;;;;;5012234;28;20412;-49
2022/03/17 06:10:07;;;;;;;50.93;32.07;;;;;;;;;;5014690;28;20806;-48
2022/03/17 06:12:33;;;;;;;47.70;29.37;;;;;;;;;;5014309;28;20462;-51
2022/03/17 06:15:00;;;;;;;50.83;35.33;;;;;;;;;;5014679;28;20441;-49
2022/03/17 06:17:42;;;;;;;52.20;32.90;;;;;;;;;;5014517;28;20400;-49
2022/03/17 06:20:09;;;;;;;52.43;32.30;;;;;;;;;;5014258;28;20486;-49
2022/03/17 06:22:36;;;;;;;52.33;33.50;;;;;;;;;;5014358;28;20462;-49
2022/03/17 06:25:02;;;;;;;49.10;31.40;;;;;;;;;;5014589;28;20410;-49
2022/03/17 06:27:28;;;;;;;63.83;37.03;;;;;;;;;;5014115;28;20403;-47
2022/03/17 06:29:54;;;;;;;59.33;35.77;;;;;;;;;;5013636;28;20404;-48
2022/03/17 06:32:20;;;;;;;62.60;35.13;;;;;;;;;;5013901;28;20419;-49
2022/03/17 06:34:46;;;;;;;64.23;36.50;;;;;;;;;;5013647;28;20406;-50
2022/03/17 06:37:12;;;;;;;66.73;35.70;;;;;;;;;;5012719;28;20472;-48
2022/03/17 06:39:38;;;;;;;58.70;33.60;;;;;;;;;;5012971;28;20498;-50
2022/03/17 06:42:04;;;;;;;65.73;36.53;;;;;;;;;;5013696;28;20489;-50
2022/03/17 06:44:30;;;;;;;61.07;38.57;;;;;;;;;;5013743;28;20900;-49
2022/03/17 06:46:56;;;;;;;67.57;37.77;;;;;;;;;;5014214;28;20415;-49
2022/03/17 06:49:21;;;;;;;55.77;37.37;;;;;;;;;;5013843;28;20431;-48
2022/03/17 06:51:47;;;;;;;62.47;36.30;;;;;;;;;;5013894;28;20415;-49
2022/03/17 06:54:13;;;;;;;65.10;37.33;;;;;;;;;;5013799;28;20735;-49
2022/03/17 06:56:39;;;;;;;58.23;36.40;;;;;;;;;;5013878;28;20491;-48
2022/03/17 06:59:05;;;;;;;56.10;35.17;;;;;;;;;;5013855;28;20403;-48
2022/03/17 07:01:31;;;;;;;57.47;36.50;;;;;;;;;;5013407;28;20415;-50
2022/03/17 07:03:57;;;;;;;63.13;36.10;;;;;;;;;;5013306;28;20425;-49
2022/03/17 07:06:23;;;;;;;56.60;34.50;;;;;;;;;;5012860;28;20439;-50
2022/03/17 07:08:49;;;;;;;48.63;28.73;;;;;;;;;;5013268;28;20407;-50
2022/03/17 07:11:15;;;;;;;40.70;26.50;;;;;;;;;;5013504;28;20426;-48
2022/03/17 07:13:41;;;;;;;40.57;24.33;;;;;;;;;;5013497;28;20887;-49
2022/03/17 07:16:09;;;;;;;37.00;21.33;;;;;;;;;;5013785;28;20457;-48
2022/03/17 07:18:35;;;;;;;35.13;20.87;;;;;;;;;;5012870;28;20426;-48
2022/03/17 07:21:01;;;;;;;38.47;20.73;;;;;;;;;;5016617;28;20453;-49
2022/03/17 07:23:27;;;;;;;34.67;21.63;;;;;;;;;;5013458;28;20765;-49
2022/03/17 07:25:53;;;;;;;38.30;22.50;;;;;;;;;;5013096;28;20413;-49
2022/03/17 07:28:21;;;;;;;42.70;23.97;;;;;;;;;;5013420;28;20406;-49
2022/03/17 07:30:47;;;;;;;40.50;24.13;;;;;;;;;;5013364;28;20512;-49
2022/03/17 07:33:13;;;;;;;42.13;25.03;;;;;;;;;;5013202;28;20892;-49
2022/03/17 07:35:39;;;;;;;43.70;23.20;;;;;;;;;;5012951;28;20538;-49
2022/03/17 07:38:05;;;;;;;45.83;26.30;;;;;;;;;;5013271;28;20438;-46
2022/03/17 07:40:32;;;;;;;42.43;22.70;;;;;;;;;;5013053;28;20906;-48
2022/03/17 07:42:59;;;;;;;36.90;22.00;;;;;;;;;;5013278;28;20778;-47
2022/03/17 07:45:25;;;;;;;33.17;20.27;;;;;;;;;;5013123;28;20434;-49
2022/03/17 07:47:51;;;;;;;33.23;20.57;;;;;;;;;;5012558;28;20845;-46
2022/03/17 07:50:17;;;;;;;29.27;16.87;;;;;;;;;;5013118;28;20411;-47
2022/03/17 07:52:44;;;;;;;28.40;16.77;;;;;;;;;;5013055;28;20859;-47
2022/03/17 07:55:10;;;;;;;37.93;21.10;;;;;;;;;;5012352;28;20415;-49
2022/03/17 07:57:36;;;;;;;31.30;20.03;;;;;;;;;;5012350;28;20793;-49
2022/03/17 08:00:04;;;;;;;31.07;19.40;;;;;;;;;;5012126;28;20405;-49
2022/03/17 08:02:31;;;;;;;28.83;18.60;;;;;;;;;;5012508;28;20454;-46
2022/03/17 08:04:57;;;;;;;24.23;18.30;;;;;;;;;;5012795;28;20497;-48
2022/03/17 08:07:23;;;;;;;28.80;18.27;;;;;;;;;;5012686;28;20491;-50
2022/03/17 08:09:48;;;;;;;22.80;17.20;;;;;;;;;;5012229;28;20460;-48
2022/03/17 08:12:14;;;;;;;32.23;20.67;;;;;;;;;;5012419;28;20425;-47
2022/03/17 08:14:41;;;;;;;35.70;22.77;;;;;;;;;;5012105;28;20455;-48
2022/03/17 08:17:09;;;;;;;31.20;20.70;;;;;;;;;;5012272;28;20452;-48
2022/03/17 08:19:35;;;;;;;29.30;16.50;;;;;;;;;;5012192;28;20408;-49
2022/03/17 08:22:01;;;;;;;22.00;16.10;;;;;;;;;;5012272;28;20582;-49
2022/03/17 08:24:27;;;;;;;20.40;14.00;;;;;;;;;;5011779;28;20403;-51
2022/03/17 08:26:55;;;;;;;19.53;13.63;;;;;;;;;;5012345;28;20403;-48
2022/03/17 08:29:21;;;;;;;23.03;14.27;;;;;;;;;;5011987;28;20405;-49
2022/03/17 08:31:47;;;;;;;24.20;15.17;;;;;;;;;;5011420;28;20428;-49
2022/03/17 08:34:13;;;;;;;24.80;13.70;;;;;;;;;;5012387;28;20442;-49
2022/03/17 08:36:39;;;;;;;26.80;14.27;;;;;;;;;;5012310;28;20520;-50
2022/03/17 08:39:06;;;;;;;26.80;15.77;;;;;;;;;;5012307;28;20488;-48
2022/03/17 08:41:32;;;;;;;28.90;13.70;;;;;;;;;;5011982;28;20423;-48
2022/03/17 08:43:58;;;;;;;20.23;11.37;;;;;;;;;;5011827;28;20410;-47
2022/03/17 08:49:24;;;;;;;10.53;8.03;;;;;;;;;;5012498;28;20394;-47
2022/03/17 08:51:52;;;;;;;18.77;8.03;;;;;;;;;;5012015;28;20980;-47
2022/03/17 08:54:22;;;;;;;12.73;7.93;;;;;;;;;;5011426;28;20856;-50
2022/03/17 08:56:49;;;;;;;12.17;6.70;;;;;;;;;;5011630;28;20469;-48
2022/03/17 08:59:15;;;;;;;8.03;6.47;;;;;;;;;;5013674;28;20414;-48
2022/03/17 09:01:41;;;;;;;22.47;6.93;;;;;;;;;;5011598;28;20835;-48
2022/03/17 09:04:07;;;;;;;8.70;6.13;;;;;;;;;;5011792;28;20460;-48
2022/03/17 09:06:35;;;;;;;9.20;6.10;;;;;;;;;;5011858;28;20438;-48
2022/03/17 09:09:01;;;;;;;9.27;6.10;;;;;;;;;;5011949;28;20860;-48
2022/03/17 09:11:27;;;;;;;8.70;5.70;;;;;;;;;;5011664;28;20461;-48
2022/03/17 09:13:53;;;;;;;11.00;5.60;;;;;;;;;;5011485;28;20419;-48
2022/03/17 09:16:19;;;;;;;8.20;5.20;;;;;;;;;;5011644;28;20476;-47
2022/03/17 09:18:45;;;;;;;8.67;4.70;;;;;;;;;;5011249;28;20429;-49
2022/03/17 09:21:11;;;;;;;6.30;5.27;;;;;;;;;;5011417;28;20790;-48
2022/03/17 09:23:37;;;;;;;9.83;5.50;;;;;;;;;;5011462;28;20419;-48
2022/03/17 09:26:03;;;;;;;5.37;4.87;;;;;;;;;;5011677;28;20418;-47
2022/03/17 09:28:29;;;;;;;9.70;5.30;;;;;;;;;;5011733;28;20399;-47
2022/03/17 09:30:56;;;;;;;7.03;5.20;;;;;;;;;;5011344;28;20442;-50
2022/03/17 09:33:25;;;;;;;5.90;4.93;;;;;;;;;;5011597;28;20409;-49
2022/03/17 09:35:58;;;;;;;11.33;4.90;;;;;;;;;;5011441;28;20859;-50
2022/03/17 09:38:24;;;;;;;7.90;4.80;;;;;;;;;;5011448;28;20984;-48
2022/03/17 09:40:50;;;;;;;4.83;4.33;;;;;;;;;;5010848;28;20425;-50
2022/03/17 09:43:21;;;;;;;8.50;4.83;;;;;;;;;;5014933;28;20399;-51
2022/03/17 09:45:50;;;;;;;7.70;5.37;;;;;;;;;;5015207;28;20409;-50
2022/03/17 09:48:17;;;;;;;7.27;4.23;;;;;;;;;;5014276;28;20443;-48
2022/03/17 09:50:44;;;;;;;6.43;4.23;;;;;;;;;;5014842;28;20836;-48
2022/03/17 09:53:10;;;;;;;4.63;4.27;;;;;;;;;;5013362;28;20413;-49
2022/03/17 09:55:36;;;;;;;8.63;5.40;;;;;;;;;;5014686;28;20447;-49
2022/03/17 09:58:03;;;;;;;9.53;5.90;;;;;;;;;;5014405;28;20410;-48
2022/03/17 10:00:53;;;;;;;6.53;5.93;;;;;;;;;;5013859;28;20395;-48
2022/03/17 10:03:16;;;;;;;10.07;6.70;;;;;;;;;;5014436;28;20457;-48
2022/03/17 10:05:46;;;;;;;7.10;6.07;;;;;;;;;;5015026;28;20859;-49
2022/03/17 10:08:13;;;;;;;8.80;7.00;;;;;;;;;;5014726;28;20428;-49
2022/03/17 10:10:40;;;;;;;7.00;6.17;;;;;;;;;;5014669;28;20496;-49
2022/03/17 10:13:14;;;;;;;10.03;8.00;;;;;;;;;;5014683;28;20497;-49
2022/03/17 10:15:40;;;;;;;9.33;6.63;;;;;;;;;;5014652;28;20446;-47
2022/03/17 10:18:19;;;;;;;11.03;7.33;;;;;;;;;;5013812;28;20410;-48
2022/03/17 10:20:45;;;;;;;11.37;6.80;;;;;;;;;;5013696;28;20419;-48
2022/03/17 10:23:11;;;;;;;14.30;6.60;;;;;;;;;;5013882;28;20884;-46
2022/03/17 10:25:38;;;;;;;8.97;5.90;;;;;;;;;;5013945;28;20503;-47
2022/03/17 10:28:04;;;;;;;10.23;6.10;;;;;;;;;;5014252;28;20619;-46
2022/03/17 10:30:34;;;;;;;7.87;5.90;;;;;;;;;;5013789;28;20403;-47
2022/03/17 10:33:04;;;;;;;12.37;6.17;;;;;;;;;;5014096;28;20417;-50
2022/03/17 10:35:34;;;;;;;7.47;5.80;;;;;;;;;;5014359;28;20835;-49
2022/03/17 10:38:19;;;;;;;8.73;6.57;;;;;;;;;;5014098;28;20403;-48
2022/03/17 10:41:00;;;;;;;8.77;5.93;;;;;;;;;;5014235;28;20409;-47
2022/03/17 10:43:26;;;;;;;12.00;7.30;;;;;;;;;;5014543;28;20396;-48
2022/03/17 10:46:06;;;;;;;11.87;7.43;;;;;;;;;;5014547;28;20934;-47
2022/03/17 10:48:32;;;;;;;10.70;6.33;;;;;;;;;;5013145;28;20913;-48
2022/03/17 10:50:58;;;;;;;14.53;6.37;;;;;;;;;;5013608;28;20435;-47
2022/03/17 10:53:27;;;;;;;7.30;4.90;;;;;;;;;;5013226;28;20406;-49
2022/03/17 10:55:53;;;;;;;7.00;4.77;;;;;;;;;;5013879;28;20458;-47
2022/03/17 10:58:20;;;;;;;7.80;4.33;;;;;;;;;;5013778;28;20409;-47
2022/03/17 11:00:47;;;;;;;8.07;4.30;;;;;;;;;;5013546;28;20789;-46
2022/03/17 11:03:16;;;;;;;12.50;3.87;;;;;;;;;;5013628;28;20840;-47
2022/03/17 11:05:42;;;;;;;6.47;4.07;;;;;;;;;;5013547;28;20810;-47
2022/03/17 11:08:09;;;;;;;8.43;4.63;;;;;;;;;;5013751;28;20407;-49
2022/03/17 11:10:35;;;;;;;15.23;5.57;;;;;;;;;;5013262;28;20411;-48
2022/03/17 11:13:06;;;;;;;12.70;4.70;;;;;;;;;;5013790;28;20727;-48
2022/03/17 11:15:34;;;;;;;10.07;5.63;;;;;;;;;;5013546;28;20949;-49
2022/03/17 11:18:02;;;;;;;7.47;4.80;;;;;;;;;;5013100;28;20399;-49
2022/03/17 11:20:29;;;;;;;16.03;5.70;;;;;;;;;;5013497;28;20830;-50
2022/03/17 11:23:11;;;;;;;8.97;5.07;;;;;;;;;;5013505;28;20409;-48
2022/03/17 11:25:38;;;;;;;5.40;3.70;;;;;;;;;;5013163;28;20407;-49
2022/03/17 11:28:04;;;;;;;6.13;3.73;;;;;;;;;;5013213;28;20907;-48
2022/03/17 11:30:32;;;;;;;8.80;3.80;;;;;;;;;;5012784;28;20452;-48
2022/03/17 11:32:59;;;;;;;4.53;2.80;;;;;;;;;;5013369;28;20410;-50
2022/03/17 11:35:29;;;;;;;6.93;2.83;;;;;;;;;;5013157;28;20456;-48
2022/03/17 11:38:14;;;;;;;7.90;2.90;;;;;;;;;;5012693;28;20413;-48
2022/03/17 11:40:59;;;;;;;7.40;3.40;;;;;;;;;;5011688;28;20407;-50
2022/03/17 11:43:25;;;;;;;9.63;3.97;;;;;;;;;;5012161;28;20418;-50
2022/03/17 11:46:09;;;;;;;5.87;3.50;;;;;;;;;;5012827;28;20447;-49
2022/03/17 11:48:38;;;;;;;13.53;4.10;;;;;;;;;;4995306;28;20415;-48
2022/03/17 11:51:05;;;;;;;5.43;4.13;;;;;;;;;;5012547;28;20650;-50
2022/03/17 11:54:02;;;;;;;6.27;3.50;;;;;;;;;;5012770;28;20450;-48
2022/03/17 11:56:31;;;;;;;6.60;3.63;;;;;;;;;;5012654;28;20454;-46
2022/03/17 11:58:58;;;;;;;8.53;3.10;;;;;;;;;;5012432;28;20458;-47
2022/03/17 12:01:25;;;;;;;8.80;3.67;;;;;;;;;;5012530;28;20418;-47
2022/03/17 12:03:55;;;;;;;6.03;3.57;;;;;;;;;;5011444;28;20445;-49
2022/03/17 12:06:23;;;;;;;7.03;3.30;;;;;;;;;;5011239;28;20502;-49
2022/03/17 12:09:00;;;;;;;5.43;4.40;;;;;;;;;;5012020;28;20763;-48
2022/03/17 12:11:35;;;;;;;6.83;4.47;;;;;;;;;;5011697;28;20438;-48
2022/03/17 12:16:43;;;;;;;12.97;4.90;;;;;;;;;;5011853;28;20873;-48
2022/03/17 12:19:09;;;;;;;9.43;5.13;;;;;;;;;;5011712;28;20926;-48
2022/03/17 12:21:53;;;;;;;12.87;4.37;;;;;;;;;;5011444;28;20481;-48
2022/03/17 12:24:36;;;;;;;9.20;5.20;;;;;;;;;;5011748;28;20757;-48
2022/03/17 12:27:22;;;;;;;9.63;5.60;;;;;;;;;;5011847;28;20400;-47
2022/03/17 12:29:49;;;;;;;14.80;6.80;;;;;;;;;;5010920;28;20406;-48
2022/03/17 12:32:17;;;;;;;12.67;4.20;;;;;;;;;;5011337;28;20792;-50
2022/03/17 12:34:45;;;;;;;8.90;3.70;;;;;;;;;;5011419;28;20449;-49
2022/03/17 12:37:11;;;;;;;6.23;2.97;;;;;;;;;;5011457;28;21028;-49
2022/03/17 12:39:37;;;;;;;9.03;3.17;;;;;;;;;;5010850;28;20401;-50
2022/03/17 12:42:12;;;;;;;9.20;3.40;;;;;;;;;;5011377;28;20426;-49
2022/03/17 12:44:46;;;;;;;5.77;3.20;;;;;;;;;;5014589;28;20402;-51
2022/03/17 12:47:13;;;;;;;8.67;3.37;;;;;;;;;;5031425;28;20434;-50
2022/03/17 12:49:40;;;;;;;10.07;2.90;;;;;;;;;;5030347;28;20428;-50
2022/03/17 12:52:13;;;;;;;6.90;3.00;;;;;;;;;;5031160;28;20423;-47
2022/03/17 12:54:39;;;;;;;7.50;3.00;;;;;;;;;;5031157;28;20494;-47
2022/03/17 12:57:05;;;;;;;11.30;4.60;;;;;;;;;;5031158;28;20550;-51
2022/03/17 12:59:31;;;;;;;5.07;3.70;;;;;;;;;;5017423;28;20758;-48
2022/03/17 13:01:57;;;;;;;8.50;3.50;;;;;;;;;;5010511;28;20453;-48
2022/03/17 13:04:26;;;;;;;10.63;2.70;;;;;;;;;;5010956;28;20431;-46
2022/03/17 13:06:54;;;;;;;4.77;1.90;;;;;;;;;;5011156;28;20407;-47
2022/03/17 13:09:20;;;;;;;8.50;2.43;;;;;;;;;;5010950;28;20470;-49
2022/03/17 13:14:33;;;;;;;11.83;3.27;;;;;;;;;;5010938;28;20419;-50
2022/03/17 13:17:00;;;;;;;6.93;2.23;;;;;;;;;;5012276;28;20458;-47
2022/03/17 13:19:26;;;;;;;6.47;2.17;;;;;;;;;;5015322;28;20889;-49
2022/03/17 13:22:02;;;;;;;3.53;2.43;;;;;;;;;;5014505;28;20562;-50
2022/03/17 13:24:28;;;;;;;7.50;2.73;;;;;;;;;;5015772;28;20406;-50
2022/03/17 13:27:00;;;;;;;6.40;2.73;;;;;;;;;;5015597;28;20408;-50
2022/03/17 13:29:26;;;;;;;5.50;2.10;;;;;;;;;;5015269;28;20400;-51
2022/03/17 13:31:52;;;;;;;7.17;2.80;;;;;;;;;;5015299;28;20426;-50
2022/03/17 13:34:28;;;;;;;9.87;4.40;;;;;;;;;;5015716;28;20404;-49
2022/03/17 13:36:58;;;;;;;18.10;3.93;;;;;;;;;;5015565;28;20794;-48
2022/03/17 13:39:28;;;;;;;5.87;2.73;;;;;;;;;;5015237;28;20775;-50
2022/03/17 13:42:06;;;;;;;7.13;3.10;;;;;;;;;;5015114;28;20433;-48
2022/03/17 13:44:43;;;;;;;7.07;3.13;;;;;;;;;;5015475;28;20493;-51
2022/03/17 13:47:13;;;;;;;12.23;3.30;;;;;;;;;;5015200;28;20763;-49
2022/03/17 13:49:39;;;;;;;10.33;3.40;;;;;;;;;;5015096;28;20411;-48
2022/03/17 13:52:05;;;;;;;5.17;2.93;;;;;;;;;;5014939;28;20514;-49
2022/03/17 13:54:38;;;;;;;9.67;2.33;;;;;;;;;;5015131;28;20446;-49
2022/03/17 13:57:04;;;;;;;9.40;2.67;;;;;;;;;;5015049;28;20455;-50
2022/03/17 13:59:31;;;;;;;5.57;2.40;;;;;;;;;;5014823;28;20426;-50
2022/03/17 14:02:13;;;;;;;7.20;3.07;;;;;;;;;;5014843;28;20791;-48
2022/03/17 14:04:52;;;;;;;4.47;2.80;;;;;;;;;;5015080;28;20411;-50
2022/03/17 14:07:18;;;;;;;8.90;2.77;;;;;;;;;;5015113;28;20446;-50
2022/03/17 14:09:43;;;;;;;8.77;2.83;;;;;;;;;;5014685;28;20966;-48
2022/03/17 14:12:09;;;;;;;6.60;2.13;;;;;;;;;;5016821;28;20977;-47
2022/03/17 14:14:36;;;;;;;6.00;2.10;;;;;;;;;;5014881;28;20407;-48
2022/03/17 14:17:02;;;;;;;3.40;2.30;;;;;;;;;;5014687;28;20457;-48
2022/03/17 14:19:29;;;;;;;5.60;2.40;;;;;;;;;;5014669;28;20407;-48
2022/03/17 14:24:41;;;;;;;7.40;2.60;;;;;;;;;;5015409;28;20395;-49
2022/03/17 14:27:07;;;;;;;6.73;2.40;;;;;;;;;;5014049;28;20403;-49
2022/03/17 14:29:33;;;;;;;8.90;2.77;;;;;;;;;;5012221;28;20434;-48
2022/03/17 14:32:01;;;;;;;5.93;2.77;;;;;;;;;;5013577;28;20429;-49
2022/03/17 14:34:27;;;;;;;10.37;3.10;;;;;;;;;;5013316;28;20469;-48
2022/03/17 14:36:53;;;;;;;7.73;2.90;;;;;;;;;;5014071;28;20458;-48
2022/03/17 14:39:19;;;;;;;7.00;2.53;;;;;;;;;;5012837;28;20420;-48
2022/03/17 14:41:45;;;;;;;11.30;2.70;;;;;;;;;;5013630;28;20534;-48
2022/03/17 14:44:12;;;;;;;2.47;2.20;;;;;;;;;;5014139;28;20808;-49
2022/03/17 14:46:38;;;;;;;4.97;2.60;;;;;;;;;;5014235;28;20411;-48
2022/03/17 14:49:05;;;;;;;8.10;2.50;;;;;;;;;;5014023;28;20416;-51
2022/03/17 14:51:32;;;;;;;8.70;2.47;;;;;;;;;;5013743;28;20419;-50
2022/03/17 14:53:58;;;;;;;10.37;2.93;;;;;;;;;;5013830;28;20415;-47